sensor_id;sensor_type;location;lat;lon;timestamp;P1;durP1;ratioP1;P2;durP2;ratioP2
76332;SDS011;71254;53.010;6.508;2023-11-21T00:00:36;31.48;;;12.35;;
76332;SDS011;71254;53.010;6.508;2023-11-21T00:03:01;29.08;;;11.20;;
76332;SDS011;71254;53.010;6.508;2023-11-21T00:05:27;27.90;;;10.95;;
76332;SDS011;71254;53.010;6.508;2023-11-21T00:07:52;29.35;;;11.43;;
76332;SDS011;71254;53.010;6.508;2023-11-21T00:10:20;28.40;;;11.68;;
76332;SDS011;71254;53.010;6.508;2023-11-21T00:12:48;32.20;;;12.30;;
76332;SDS011;71254;53.010;6.508;2023-11-21T00:15:14;30.45;;;11.80;;
76332;SDS011;71254;53.010;6.508;2023-11-21T00:17:40;25.48;;;11.10;;
76332;SDS011;71254;53.010;6.508;2023-11-21T00:20:06;28.40;;;11.65;;
76332;SDS011;71254;53.010;6.508;2023-11-21T00:22:33;26.80;;;11.98;;
76332;SDS011;71254;53.010;6.508;2023-11-21T00:24:59;40.63;;;12.80;;
76332;SDS011;71254;53.010;6.508;2023-11-21T00:27:25;26.48;;;12.02;;
76332;SDS011;71254;53.010;6.508;2023-11-21T00:29:53;35.33;;;12.25;;
76332;SDS011;71254;53.010;6.508;2023-11-21T00:32:26;27.80;;;11.30;;
76332;SDS011;71254;53.010;6.508;2023-11-21T00:34:52;32.15;;;13.65;;
76332;SDS011;71254;53.010;6.508;2023-11-21T00:37:17;28.58;;;11.93;;
76332;SDS011;71254;53.010;6.508;2023-11-21T00:39:45;36.13;;;13.98;;
76332;SDS011;71254;53.010;6.508;2023-11-21T00:42:11;32.05;;;13.38;;
76332;SDS011;71254;53.010;6.508;2023-11-21T00:44:39;31.20;;;13.82;;
76332;SDS011;71254;53.010;6.508;2023-11-21T00:47:05;29.35;;;12.98;;
76332;SDS011;71254;53.010;6.508;2023-11-21T00:49:31;32.40;;;13.65;;
76332;SDS011;71254;53.010;6.508;2023-11-21T00:51:57;36.72;;;14.63;;
76332;SDS011;71254;53.010;6.508;2023-11-21T00:54:23;29.17;;;13.68;;
76332;SDS011;71254;53.010;6.508;2023-11-21T00:56:48;34.17;;;13.82;;
76332;SDS011;71254;53.010;6.508;2023-11-21T00:59:16;37.92;;;15.27;;
76332;SDS011;71254;53.010;6.508;2023-11-21T01:01:45;36.50;;;15.02;;
76332;SDS011;71254;53.010;6.508;2023-11-21T01:04:10;41.80;;;15.70;;
76332;SDS011;71254;53.010;6.508;2023-11-21T01:06:39;41.45;;;16.60;;
76332;SDS011;71254;53.010;6.508;2023-11-21T01:09:07;43.55;;;17.08;;
76332;SDS011;71254;53.010;6.508;2023-11-21T01:11:33;37.38;;;16.27;;
76332;SDS011;71254;53.010;6.508;2023-11-21T01:14:08;41.75;;;15.77;;
76332;SDS011;71254;53.010;6.508;2023-11-21T01:16:35;43.72;;;17.02;;
76332;SDS011;71254;53.010;6.508;2023-11-21T01:19:01;46.13;;;16.67;;
76332;SDS011;71254;53.010;6.508;2023-11-21T01:21:27;49.80;;;18.02;;
76332;SDS011;71254;53.010;6.508;2023-11-21T01:23:53;52.92;;;19.33;;
76332;SDS011;71254;53.010;6.508;2023-11-21T01:26:20;53.47;;;19.17;;
76332;SDS011;71254;53.010;6.508;2023-11-21T01:28:46;62.25;;;20.90;;
76332;SDS011;71254;53.010;6.508;2023-11-21T01:31:13;61.65;;;20.30;;
76332;SDS011;71254;53.010;6.508;2023-11-21T01:33:40;59.88;;;20.75;;
76332;SDS011;71254;53.010;6.508;2023-11-21T01:36:05;63.88;;;21.45;;
76332;SDS011;71254;53.010;6.508;2023-11-21T01:38:34;66.85;;;21.23;;
76332;SDS011;71254;53.010;6.508;2023-11-21T01:41:00;67.63;;;21.98;;
76332;SDS011;71254;53.010;6.508;2023-11-21T01:43:26;81.80;;;23.33;;
76332;SDS011;71254;53.010;6.508;2023-11-21T01:45:53;71.43;;;22.75;;
76332;SDS011;71254;53.010;6.508;2023-11-21T01:48:22;77.60;;;23.02;;
76332;SDS011;71254;53.010;6.508;2023-11-21T01:50:52;69.05;;;22.23;;
76332;SDS011;71254;53.010;6.508;2023-11-21T01:53:18;69.72;;;21.02;;
76332;SDS011;71254;53.010;6.508;2023-11-21T01:55:44;71.70;;;22.70;;
76332;SDS011;71254;53.010;6.508;2023-11-21T01:58:11;67.30;;;21.33;;
76332;SDS011;71254;53.010;6.508;2023-11-21T02:00:40;79.10;;;23.73;;
76332;SDS011;71254;53.010;6.508;2023-11-21T02:03:06;73.57;;;24.20;;
76332;SDS011;71254;53.010;6.508;2023-11-21T02:05:32;60.40;;;21.85;;
76332;SDS011;71254;53.010;6.508;2023-11-21T02:07:58;64.18;;;21.48;;
76332;SDS011;71254;53.010;6.508;2023-11-21T02:10:23;60.63;;;22.17;;
76332;SDS011;71254;53.010;6.508;2023-11-21T02:12:52;62.03;;;22.02;;
76332;SDS011;71254;53.010;6.508;2023-11-21T02:15:18;64.15;;;21.98;;
76332;SDS011;71254;53.010;6.508;2023-11-21T02:17:48;71.55;;;24.73;;
76332;SDS011;71254;53.010;6.508;2023-11-21T02:20:19;80.38;;;24.70;;
76332;SDS011;71254;53.010;6.508;2023-11-21T02:22:52;61.08;;;21.40;;
76332;SDS011;71254;53.010;6.508;2023-11-21T02:25:23;66.55;;;22.27;;
76332;SDS011;71254;53.010;6.508;2023-11-21T02:27:56;71.65;;;23.33;;
76332;SDS011;71254;53.010;6.508;2023-11-21T02:30:22;77.25;;;23.33;;
76332;SDS011;71254;53.010;6.508;2023-11-21T02:32:50;67.82;;;24.65;;
76332;SDS011;71254;53.010;6.508;2023-11-21T02:35:18;79.57;;;24.10;;
76332;SDS011;71254;53.010;6.508;2023-11-21T02:37:46;69.22;;;23.92;;
76332;SDS011;71254;53.010;6.508;2023-11-21T02:40:12;61.92;;;22.10;;
76332;SDS011;71254;53.010;6.508;2023-11-21T02:42:38;70.25;;;24.08;;
76332;SDS011;71254;53.010;6.508;2023-11-21T02:45:06;69.57;;;22.73;;
76332;SDS011;71254;53.010;6.508;2023-11-21T02:47:33;65.43;;;22.67;;
76332;SDS011;71254;53.010;6.508;2023-11-21T02:49:58;69.68;;;23.40;;
76332;SDS011;71254;53.010;6.508;2023-11-21T02:52:24;79.10;;;24.50;;
76332;SDS011;71254;53.010;6.508;2023-11-21T02:54:50;68.15;;;23.05;;
76332;SDS011;71254;53.010;6.508;2023-11-21T02:57:16;80.18;;;26.20;;
76332;SDS011;71254;53.010;6.508;2023-11-21T02:59:42;88.40;;;27.27;;
76332;SDS011;71254;53.010;6.508;2023-11-21T03:02:07;68.75;;;23.38;;
76332;SDS011;71254;53.010;6.508;2023-11-21T03:04:33;84.78;;;25.50;;
76332;SDS011;71254;53.010;6.508;2023-11-21T03:07:01;81.40;;;25.80;;
76332;SDS011;71254;53.010;6.508;2023-11-21T03:09:27;84.97;;;25.75;;
76332;SDS011;71254;53.010;6.508;2023-11-21T03:11:53;71.35;;;24.35;;
76332;SDS011;71254;53.010;6.508;2023-11-21T03:14:19;81.50;;;26.15;;
76332;SDS011;71254;53.010;6.508;2023-11-21T03:16:45;79.32;;;24.75;;
76332;SDS011;71254;53.010;6.508;2023-11-21T03:19:11;70.97;;;24.58;;
76332;SDS011;71254;53.010;6.508;2023-11-21T03:21:36;70.88;;;25.73;;
76332;SDS011;71254;53.010;6.508;2023-11-21T03:24:02;91.85;;;26.73;;
76332;SDS011;71254;53.010;6.508;2023-11-21T03:26:31;79.15;;;26.75;;
76332;SDS011;71254;53.010;6.508;2023-11-21T03:28:59;76.50;;;24.70;;
76332;SDS011;71254;53.010;6.508;2023-11-21T03:31:25;77.13;;;26.38;;
76332;SDS011;71254;53.010;6.508;2023-11-21T03:33:51;85.63;;;27.60;;
76332;SDS011;71254;53.010;6.508;2023-11-21T03:36:19;96.00;;;28.30;;
76332;SDS011;71254;53.010;6.508;2023-11-21T03:38:44;116.40;;;32.95;;
76332;SDS011;71254;53.010;6.508;2023-11-21T03:41:10;106.65;;;30.33;;
76332;SDS011;71254;53.010;6.508;2023-11-21T03:43:36;70.40;;;24.67;;
76332;SDS011;71254;53.010;6.508;2023-11-21T03:46:02;88.90;;;27.98;;
76332;SDS011;71254;53.010;6.508;2023-11-21T03:48:31;120.68;;;30.95;;
76332;SDS011;71254;53.010;6.508;2023-11-21T03:50:58;90.60;;;28.05;;
76332;SDS011;71254;53.010;6.508;2023-11-21T03:53:23;109.95;;;31.20;;
76332;SDS011;71254;53.010;6.508;2023-11-21T03:55:49;82.22;;;26.92;;
76332;SDS011;71254;53.010;6.508;2023-11-21T03:58:15;89.45;;;28.00;;
76332;SDS011;71254;53.010;6.508;2023-11-21T04:00:43;114.75;;;31.63;;
76332;SDS011;71254;53.010;6.508;2023-11-21T04:03:09;129.45;;;32.88;;
76332;SDS011;71254;53.010;6.508;2023-11-21T04:05:34;116.43;;;31.85;;
76332;SDS011;71254;53.010;6.508;2023-11-21T04:08:00;79.00;;;27.00;;
76332;SDS011;71254;53.010;6.508;2023-11-21T04:10:25;119.10;;;32.40;;
76332;SDS011;71254;53.010;6.508;2023-11-21T04:12:51;105.82;;;30.08;;
76332;SDS011;71254;53.010;6.508;2023-11-21T04:15:17;139.95;;;36.22;;
76332;SDS011;71254;53.010;6.508;2023-11-21T04:17:42;106.72;;;32.00;;
76332;SDS011;71254;53.010;6.508;2023-11-21T04:20:11;111.03;;;33.03;;
76332;SDS011;71254;53.010;6.508;2023-11-21T04:22:40;113.10;;;30.98;;
76332;SDS011;71254;53.010;6.508;2023-11-21T04:25:15;122.50;;;34.15;;
76332;SDS011;71254;53.010;6.508;2023-11-21T04:27:44;134.05;;;33.95;;
76332;SDS011;71254;53.010;6.508;2023-11-21T04:30:13;143.48;;;35.70;;
76332;SDS011;71254;53.010;6.508;2023-11-21T04:32:39;123.45;;;34.50;;
76332;SDS011;71254;53.010;6.508;2023-11-21T04:35:05;119.35;;;33.72;;
76332;SDS011;71254;53.010;6.508;2023-11-21T04:37:31;113.05;;;32.63;;
76332;SDS011;71254;53.010;6.508;2023-11-21T04:39:57;104.88;;;32.88;;
76332;SDS011;71254;53.010;6.508;2023-11-21T04:42:22;114.63;;;32.70;;
76332;SDS011;71254;53.010;6.508;2023-11-21T04:44:51;104.38;;;32.67;;
76332;SDS011;71254;53.010;6.508;2023-11-21T04:47:17;81.90;;;29.02;;
76332;SDS011;71254;53.010;6.508;2023-11-21T04:49:45;103.75;;;31.55;;
76332;SDS011;71254;53.010;6.508;2023-11-21T04:52:14;110.97;;;31.13;;
76332;SDS011;71254;53.010;6.508;2023-11-21T04:54:40;109.07;;;34.10;;
76332;SDS011;71254;53.010;6.508;2023-11-21T04:57:05;123.45;;;33.70;;
76332;SDS011;71254;53.010;6.508;2023-11-21T04:59:32;115.32;;;32.45;;
76332;SDS011;71254;53.010;6.508;2023-11-21T05:01:59;105.70;;;33.85;;
76332;SDS011;71254;53.010;6.508;2023-11-21T05:04:25;113.35;;;32.40;;
76332;SDS011;71254;53.010;6.508;2023-11-21T05:06:54;111.72;;;31.20;;
76332;SDS011;71254;53.010;6.508;2023-11-21T05:09:19;104.00;;;33.38;;
76332;SDS011;71254;53.010;6.508;2023-11-21T05:11:47;91.10;;;29.83;;
76332;SDS011;71254;53.010;6.508;2023-11-21T05:14:12;88.72;;;28.92;;
76332;SDS011;71254;53.010;6.508;2023-11-21T05:16:39;120.22;;;33.17;;
76332;SDS011;71254;53.010;6.508;2023-11-21T05:19:04;90.10;;;30.50;;
76332;SDS011;71254;53.010;6.508;2023-11-21T05:21:31;103.70;;;32.60;;
76332;SDS011;71254;53.010;6.508;2023-11-21T05:24:01;92.70;;;30.17;;
76332;SDS011;71254;53.010;6.508;2023-11-21T05:26:26;110.05;;;30.83;;
76332;SDS011;71254;53.010;6.508;2023-11-21T05:28:52;122.38;;;34.17;;
76332;SDS011;71254;53.010;6.508;2023-11-21T05:31:21;93.45;;;30.55;;
76332;SDS011;71254;53.010;6.508;2023-11-21T05:33:46;132.00;;;37.30;;
76332;SDS011;71254;53.010;6.508;2023-11-21T05:36:12;130.63;;;34.90;;
76332;SDS011;71254;53.010;6.508;2023-11-21T05:38:38;134.80;;;35.60;;
76332;SDS011;71254;53.010;6.508;2023-11-21T05:41:03;108.65;;;31.70;;
76332;SDS011;71254;53.010;6.508;2023-11-21T05:43:29;112.07;;;32.33;;
76332;SDS011;71254;53.010;6.508;2023-11-21T05:45:55;117.85;;;32.38;;
76332;SDS011;71254;53.010;6.508;2023-11-21T05:48:22;116.80;;;33.00;;
76332;SDS011;71254;53.010;6.508;2023-11-21T05:50:51;104.50;;;31.60;;
76332;SDS011;71254;53.010;6.508;2023-11-21T05:53:16;94.55;;;28.88;;
76332;SDS011;71254;53.010;6.508;2023-11-21T05:55:45;112.10;;;32.60;;
76332;SDS011;71254;53.010;6.508;2023-11-21T05:58:10;105.95;;;31.20;;
76332;SDS011;71254;53.010;6.508;2023-11-21T06:00:36;84.85;;;29.08;;
76332;SDS011;71254;53.010;6.508;2023-11-21T06:03:05;97.38;;;30.15;;
76332;SDS011;71254;53.010;6.508;2023-11-21T06:05:31;93.50;;;29.02;;
76332;SDS011;71254;53.010;6.508;2023-11-21T06:07:58;87.18;;;28.48;;
76332;SDS011;71254;53.010;6.508;2023-11-21T06:10:24;95.22;;;28.70;;
76332;SDS011;71254;53.010;6.508;2023-11-21T06:12:50;82.80;;;27.17;;
76332;SDS011;71254;53.010;6.508;2023-11-21T06:15:16;76.40;;;26.10;;
76332;SDS011;71254;53.010;6.508;2023-11-21T06:17:44;69.93;;;24.15;;
76332;SDS011;71254;53.010;6.508;2023-11-21T06:20:14;83.78;;;26.58;;
76332;SDS011;71254;53.010;6.508;2023-11-21T06:22:41;57.17;;;22.40;;
76332;SDS011;71254;53.010;6.508;2023-11-21T06:25:07;53.83;;;21.70;;
76332;SDS011;71254;53.010;6.508;2023-11-21T06:27:40;63.38;;;20.70;;
76332;SDS011;71254;53.010;6.508;2023-11-21T06:30:10;53.15;;;19.88;;
76332;SDS011;71254;53.010;6.508;2023-11-21T06:32:37;53.08;;;20.27;;
76332;SDS011;71254;53.010;6.508;2023-11-21T06:35:03;35.28;;;16.70;;
76332;SDS011;71254;53.010;6.508;2023-11-21T06:37:30;28.77;;;13.90;;
76332;SDS011;71254;53.010;6.508;2023-11-21T06:39:57;24.00;;;12.05;;
76332;SDS011;71254;53.010;6.508;2023-11-21T06:42:32;27.30;;;12.15;;
76332;SDS011;71254;53.010;6.508;2023-11-21T06:45:03;28.40;;;12.98;;
76332;SDS011;71254;53.010;6.508;2023-11-21T06:47:29;32.80;;;13.45;;
76332;SDS011;71254;53.010;6.508;2023-11-21T06:49:55;30.67;;;13.70;;
76332;SDS011;71254;53.010;6.508;2023-11-21T06:52:21;26.48;;;14.00;;
76332;SDS011;71254;53.010;6.508;2023-11-21T06:54:47;27.83;;;14.18;;
76332;SDS011;71254;53.010;6.508;2023-11-21T06:57:16;33.20;;;14.88;;
76332;SDS011;71254;53.010;6.508;2023-11-21T06:59:48;28.60;;;14.32;;
76332;SDS011;71254;53.010;6.508;2023-11-21T07:02:15;34.92;;;15.00;;
76332;SDS011;71254;53.010;6.508;2023-11-21T07:04:43;38.13;;;15.00;;
76332;SDS011;71254;53.010;6.508;2023-11-21T07:07:15;31.95;;;14.82;;
76332;SDS011;71254;53.010;6.508;2023-11-21T07:09:40;36.50;;;15.30;;
76332;SDS011;71254;53.010;6.508;2023-11-21T07:12:06;34.15;;;16.00;;
76332;SDS011;71254;53.010;6.508;2023-11-21T07:14:35;32.03;;;15.45;;
76332;SDS011;71254;53.010;6.508;2023-11-21T07:17:02;35.30;;;14.30;;
76332;SDS011;71254;53.010;6.508;2023-11-21T07:19:27;29.45;;;15.10;;
76332;SDS011;71254;53.010;6.508;2023-11-21T07:21:54;35.45;;;15.45;;
76332;SDS011;71254;53.010;6.508;2023-11-21T07:24:20;33.10;;;14.05;;
76332;SDS011;71254;53.010;6.508;2023-11-21T07:26:46;38.47;;;15.40;;
76332;SDS011;71254;53.010;6.508;2023-11-21T07:29:13;38.28;;;16.17;;
76332;SDS011;71254;53.010;6.508;2023-11-21T07:31:38;37.65;;;16.17;;
76332;SDS011;71254;53.010;6.508;2023-11-21T07:34:04;43.70;;;18.60;;
76332;SDS011;71254;53.010;6.508;2023-11-21T07:36:30;47.92;;;17.73;;
76332;SDS011;71254;53.010;6.508;2023-11-21T07:39:02;41.47;;;17.00;;
76332;SDS011;71254;53.010;6.508;2023-11-21T07:41:31;46.63;;;18.08;;
76332;SDS011;71254;53.010;6.508;2023-11-21T07:43:57;41.53;;;16.50;;
76332;SDS011;71254;53.010;6.508;2023-11-21T07:46:23;47.38;;;18.02;;
76332;SDS011;71254;53.010;6.508;2023-11-21T07:48:49;48.80;;;17.52;;
76332;SDS011;71254;53.010;6.508;2023-11-21T07:51:14;47.53;;;17.25;;
76332;SDS011;71254;53.010;6.508;2023-11-21T07:53:41;49.05;;;18.23;;
76332;SDS011;71254;53.010;6.508;2023-11-21T07:56:09;43.58;;;17.70;;
76332;SDS011;71254;53.010;6.508;2023-11-21T07:58:35;52.40;;;19.30;;
76332;SDS011;71254;53.010;6.508;2023-11-21T08:01:02;44.13;;;18.13;;
76332;SDS011;71254;53.010;6.508;2023-11-21T08:03:28;37.42;;;16.83;;
76332;SDS011;71254;53.010;6.508;2023-11-21T08:05:55;41.63;;;16.77;;
76332;SDS011;71254;53.010;6.508;2023-11-21T08:08:21;34.95;;;16.27;;
76332;SDS011;71254;53.010;6.508;2023-11-21T08:10:47;38.35;;;16.20;;
76332;SDS011;71254;53.010;6.508;2023-11-21T08:13:13;25.48;;;12.70;;
76332;SDS011;71254;53.010;6.508;2023-11-21T08:15:41;33.30;;;15.68;;
76332;SDS011;71254;53.010;6.508;2023-11-21T08:20:37;31.73;;;15.50;;
76332;SDS011;71254;53.010;6.508;2023-11-21T08:23:04;34.13;;;15.98;;
76332;SDS011;71254;53.010;6.508;2023-11-21T08:25:31;32.85;;;15.27;;
76332;SDS011;71254;53.010;6.508;2023-11-21T08:27:57;29.58;;;15.70;;
76332;SDS011;71254;53.010;6.508;2023-11-21T08:30:23;31.42;;;16.00;;
76332;SDS011;71254;53.010;6.508;2023-11-21T08:32:49;35.67;;;16.80;;
76332;SDS011;71254;53.010;6.508;2023-11-21T08:35:17;45.10;;;19.70;;
76332;SDS011;71254;53.010;6.508;2023-11-21T08:37:42;48.60;;;22.05;;
76332;SDS011;71254;53.010;6.508;2023-11-21T08:40:08;48.00;;;22.17;;
76332;SDS011;71254;53.010;6.508;2023-11-21T08:42:37;44.92;;;21.48;;
76332;SDS011;71254;53.010;6.508;2023-11-21T08:45:03;48.05;;;22.90;;
76332;SDS011;71254;53.010;6.508;2023-11-21T08:47:33;51.75;;;23.92;;
76332;SDS011;71254;53.010;6.508;2023-11-21T08:49:59;49.15;;;22.60;;
76332;SDS011;71254;53.010;6.508;2023-11-21T08:52:25;55.75;;;25.63;;
76332;SDS011;71254;53.010;6.508;2023-11-21T08:54:51;50.20;;;24.88;;
76332;SDS011;71254;53.010;6.508;2023-11-21T08:57:24;48.33;;;23.48;;
76332;SDS011;71254;53.010;6.508;2023-11-21T08:59:50;49.88;;;24.05;;
76332;SDS011;71254;53.010;6.508;2023-11-21T09:02:20;41.42;;;21.60;;
76332;SDS011;71254;53.010;6.508;2023-11-21T09:04:48;41.05;;;22.40;;
76332;SDS011;71254;53.010;6.508;2023-11-21T09:07:19;42.85;;;22.13;;
76332;SDS011;71254;53.010;6.508;2023-11-21T09:09:46;39.28;;;22.33;;
76332;SDS011;71254;53.010;6.508;2023-11-21T09:12:15;39.30;;;22.40;;
76332;SDS011;71254;53.010;6.508;2023-11-21T09:14:42;42.03;;;22.58;;
76332;SDS011;71254;53.010;6.508;2023-11-21T09:17:12;38.75;;;22.75;;
76332;SDS011;71254;53.010;6.508;2023-11-21T09:19:37;39.05;;;21.77;;
76332;SDS011;71254;53.010;6.508;2023-11-21T09:22:03;44.25;;;23.23;;
76332;SDS011;71254;53.010;6.508;2023-11-21T09:24:33;33.27;;;21.03;;
76332;SDS011;71254;53.010;6.508;2023-11-21T09:26:59;33.85;;;21.90;;
76332;SDS011;71254;53.010;6.508;2023-11-21T09:29:26;35.58;;;21.05;;
76332;SDS011;71254;53.010;6.508;2023-11-21T09:31:52;31.55;;;20.17;;
76332;SDS011;71254;53.010;6.508;2023-11-21T09:34:19;30.40;;;19.80;;
76332;SDS011;71254;53.010;6.508;2023-11-21T09:36:48;32.85;;;20.13;;
76332;SDS011;71254;53.010;6.508;2023-11-21T09:39:14;33.40;;;20.55;;
76332;SDS011;71254;53.010;6.508;2023-11-21T09:41:44;30.02;;;19.70;;
76332;SDS011;71254;53.010;6.508;2023-11-21T09:44:16;31.65;;;19.55;;
76332;SDS011;71254;53.010;6.508;2023-11-21T09:46:45;31.45;;;20.00;;
76332;SDS011;71254;53.010;6.508;2023-11-21T09:49:14;30.80;;;19.05;;
76332;SDS011;71254;53.010;6.508;2023-11-21T09:51:50;29.30;;;18.80;;
76332;SDS011;71254;53.010;6.508;2023-11-21T09:54:17;29.30;;;17.80;;
76332;SDS011;71254;53.010;6.508;2023-11-21T09:56:44;25.98;;;17.42;;
76332;SDS011;71254;53.010;6.508;2023-11-21T09:59:12;28.83;;;18.23;;
76332;SDS011;71254;53.010;6.508;2023-11-21T10:01:40;29.08;;;18.48;;
76332;SDS011;71254;53.010;6.508;2023-11-21T10:04:16;28.65;;;17.35;;
76332;SDS011;71254;53.010;6.508;2023-11-21T10:06:42;27.23;;;18.17;;
76332;SDS011;71254;53.010;6.508;2023-11-21T10:09:11;26.42;;;17.40;;
76332;SDS011;71254;53.010;6.508;2023-11-21T10:11:41;25.65;;;15.80;;
76332;SDS011;71254;53.010;6.508;2023-11-21T10:14:08;29.52;;;17.55;;
76332;SDS011;71254;53.010;6.508;2023-11-21T10:16:36;25.88;;;16.17;;
76332;SDS011;71254;53.010;6.508;2023-11-21T10:19:03;27.00;;;17.05;;
76332;SDS011;71254;53.010;6.508;2023-11-21T10:21:32;25.48;;;16.08;;
76332;SDS011;71254;53.010;6.508;2023-11-21T10:23:58;23.60;;;16.30;;
76332;SDS011;71254;53.010;6.508;2023-11-21T10:26:24;26.90;;;16.15;;
76332;SDS011;71254;53.010;6.508;2023-11-21T10:28:58;20.92;;;14.93;;
76332;SDS011;71254;53.010;6.508;2023-11-21T10:31:29;22.35;;;15.00;;
76332;SDS011;71254;53.010;6.508;2023-11-21T10:36:41;20.35;;;14.50;;
76332;SDS011;71254;53.010;6.508;2023-11-21T10:39:07;17.90;;;13.38;;
76332;SDS011;71254;53.010;6.508;2023-11-21T10:41:34;22.45;;;15.23;;
76332;SDS011;71254;53.010;6.508;2023-11-21T10:44:00;17.52;;;12.60;;
76332;SDS011;71254;53.010;6.508;2023-11-21T10:46:29;16.70;;;11.57;;
76332;SDS011;71254;53.010;6.508;2023-11-21T10:48:55;15.38;;;11.30;;
76332;SDS011;71254;53.010;6.508;2023-11-21T10:51:21;14.40;;;10.88;;
76332;SDS011;71254;53.010;6.508;2023-11-21T10:53:49;12.60;;;10.05;;
76332;SDS011;71254;53.010;6.508;2023-11-21T10:56:22;12.88;;;9.35;;
76332;SDS011;71254;53.010;6.508;2023-11-21T10:58:49;12.48;;;9.18;;
76332;SDS011;71254;53.010;6.508;2023-11-21T11:01:17;11.48;;;9.02;;
76332;SDS011;71254;53.010;6.508;2023-11-21T11:03:46;13.32;;;9.40;;
76332;SDS011;71254;53.010;6.508;2023-11-21T11:06:13;10.85;;;8.55;;
76332;SDS011;71254;53.010;6.508;2023-11-21T11:08:40;13.45;;;9.32;;
76332;SDS011;71254;53.010;6.508;2023-11-21T11:11:06;13.07;;;8.77;;
76332;SDS011;71254;53.010;6.508;2023-11-21T11:13:32;12.05;;;9.20;;
76332;SDS011;71254;53.010;6.508;2023-11-21T11:16:01;12.23;;;9.60;;
76332;SDS011;71254;53.010;6.508;2023-11-21T11:18:28;14.57;;;10.63;;
76332;SDS011;71254;53.010;6.508;2023-11-21T11:21:16;13.48;;;9.45;;
76332;SDS011;71254;53.010;6.508;2023-11-21T11:26:33;13.55;;;9.73;;
76332;SDS011;71254;53.010;6.508;2023-11-21T11:32:13;11.23;;;8.75;;
76332;SDS011;71254;53.010;6.508;2023-11-21T11:34:55;11.38;;;8.48;;
76332;SDS011;71254;53.010;6.508;2023-11-21T11:37:24;12.45;;;9.65;;
76332;SDS011;71254;53.010;6.508;2023-11-21T11:39:50;11.90;;;9.02;;
76332;SDS011;71254;53.010;6.508;2023-11-21T11:42:17;12.77;;;8.88;;
76332;SDS011;71254;53.010;6.508;2023-11-21T11:47:15;11.75;;;8.93;;
76332;SDS011;71254;53.010;6.508;2023-11-21T11:49:57;11.20;;;8.60;;
76332;SDS011;71254;53.010;6.508;2023-11-21T11:55:05;11.70;;;9.05;;
76332;SDS011;71254;53.010;6.508;2023-11-21T11:57:35;14.60;;;9.70;;
76332;SDS011;71254;53.010;6.508;2023-11-21T12:00:17;10.77;;;8.00;;
76332;SDS011;71254;53.010;6.508;2023-11-21T12:02:49;10.73;;;8.20;;
76332;SDS011;71254;53.010;6.508;2023-11-21T12:05:19;10.77;;;8.07;;
76332;SDS011;71254;53.010;6.508;2023-11-21T12:07:56;10.60;;;8.07;;
76332;SDS011;71254;53.010;6.508;2023-11-21T12:10:23;11.10;;;7.97;;
76332;SDS011;71254;53.010;6.508;2023-11-21T12:12:50;11.05;;;8.50;;
76332;SDS011;71254;53.010;6.508;2023-11-21T12:15:20;12.35;;;9.68;;
76332;SDS011;71254;53.010;6.508;2023-11-21T12:17:47;9.73;;;7.55;;
76332;SDS011;71254;53.010;6.508;2023-11-21T12:20:15;10.15;;;6.95;;
76332;SDS011;71254;53.010;6.508;2023-11-21T12:22:44;8.50;;;6.80;;
76332;SDS011;71254;53.010;6.508;2023-11-21T12:27:41;10.10;;;7.28;;
76332;SDS011;71254;53.010;6.508;2023-11-21T12:30:08;9.35;;;7.22;;
76332;SDS011;71254;53.010;6.508;2023-11-21T12:32:41;9.77;;;7.53;;
76332;SDS011;71254;53.010;6.508;2023-11-21T12:35:08;10.15;;;7.95;;
76332;SDS011;71254;53.010;6.508;2023-11-21T12:37:38;9.48;;;7.55;;
76332;SDS011;71254;53.010;6.508;2023-11-21T12:40:06;10.48;;;7.63;;
76332;SDS011;71254;53.010;6.508;2023-11-21T12:42:40;10.07;;;7.75;;
76332;SDS011;71254;53.010;6.508;2023-11-21T12:45:11;11.63;;;7.55;;
76332;SDS011;71254;53.010;6.508;2023-11-21T12:47:48;11.35;;;8.52;;
76332;SDS011;71254;53.010;6.508;2023-11-21T12:50:20;11.27;;;8.00;;
76332;SDS011;71254;53.010;6.508;2023-11-21T12:52:53;12.63;;;7.93;;
76332;SDS011;71254;53.010;6.508;2023-11-21T12:57:49;10.85;;;8.07;;
76332;SDS011;71254;53.010;6.508;2023-11-21T13:00:31;10.05;;;7.53;;
76332;SDS011;71254;53.010;6.508;2023-11-21T13:03:02;9.63;;;7.57;;
76332;SDS011;71254;53.010;6.508;2023-11-21T13:05:38;10.35;;;8.27;;
76332;SDS011;71254;53.010;6.508;2023-11-21T13:08:09;9.40;;;7.40;;
76332;SDS011;71254;53.010;6.508;2023-11-21T13:10:38;9.98;;;7.78;;
76332;SDS011;71254;53.010;6.508;2023-11-21T13:13:08;10.65;;;7.95;;
76332;SDS011;71254;53.010;6.508;2023-11-21T13:15:39;10.38;;;7.72;;
76332;SDS011;71254;53.010;6.508;2023-11-21T13:18:06;9.13;;;6.82;;
76332;SDS011;71254;53.010;6.508;2023-11-21T13:20:32;10.88;;;7.55;;
76332;SDS011;71254;53.010;6.508;2023-11-21T13:22:58;10.10;;;7.47;;
76332;SDS011;71254;53.010;6.508;2023-11-21T13:25:25;10.60;;;7.22;;
76332;SDS011;71254;53.010;6.508;2023-11-21T13:27:53;8.88;;;7.22;;
76332;SDS011;71254;53.010;6.508;2023-11-21T13:30:22;13.57;;;9.57;;
76332;SDS011;71254;53.010;6.508;2023-11-21T13:32:55;8.95;;;6.95;;
76332;SDS011;71254;53.010;6.508;2023-11-21T13:35:26;10.27;;;7.50;;
76332;SDS011;71254;53.010;6.508;2023-11-21T13:37:57;9.50;;;7.15;;
76332;SDS011;71254;53.010;6.508;2023-11-21T13:40:35;10.70;;;7.82;;
76332;SDS011;71254;53.010;6.508;2023-11-21T13:43:08;11.07;;;7.50;;
76332;SDS011;71254;53.010;6.508;2023-11-21T13:45:38;9.15;;;7.78;;
76332;SDS011;71254;53.010;6.508;2023-11-21T13:48:08;12.48;;;7.95;;
76332;SDS011;71254;53.010;6.508;2023-11-21T13:50:44;11.00;;;8.00;;
76332;SDS011;71254;53.010;6.508;2023-11-21T13:53:21;10.70;;;8.48;;
76332;SDS011;71254;53.010;6.508;2023-11-21T13:55:51;11.15;;;8.98;;
76332;SDS011;71254;53.010;6.508;2023-11-21T13:58:19;9.30;;;7.50;;
76332;SDS011;71254;53.010;6.508;2023-11-21T14:01:00;9.70;;;7.57;;
76332;SDS011;71254;53.010;6.508;2023-11-21T14:03:27;9.70;;;8.02;;
76332;SDS011;71254;53.010;6.508;2023-11-21T14:06:17;9.52;;;6.93;;
76332;SDS011;71254;53.010;6.508;2023-11-21T14:08:49;9.13;;;6.60;;
76332;SDS011;71254;53.010;6.508;2023-11-21T14:11:15;6.97;;;5.85;;
76332;SDS011;71254;53.010;6.508;2023-11-21T14:13:43;8.00;;;5.38;;
76332;SDS011;71254;53.010;6.508;2023-11-21T14:16:15;9.00;;;6.38;;
76332;SDS011;71254;53.010;6.508;2023-11-21T14:18:42;9.27;;;7.40;;
76332;SDS011;71254;53.010;6.508;2023-11-21T14:21:19;8.32;;;5.88;;
76332;SDS011;71254;53.010;6.508;2023-11-21T14:23:44;8.45;;;6.43;;
76332;SDS011;71254;53.010;6.508;2023-11-21T14:26:11;10.02;;;7.32;;
76332;SDS011;71254;53.010;6.508;2023-11-21T14:28:41;9.30;;;7.05;;
76332;SDS011;71254;53.010;6.508;2023-11-21T14:31:07;8.18;;;6.35;;
76332;SDS011;71254;53.010;6.508;2023-11-21T14:33:38;7.82;;;6.25;;
76332;SDS011;71254;53.010;6.508;2023-11-21T14:36:04;9.05;;;6.38;;
76332;SDS011;71254;53.010;6.508;2023-11-21T14:38:33;9.50;;;6.55;;
76332;SDS011;71254;53.010;6.508;2023-11-21T14:40:58;8.48;;;6.72;;
76332;SDS011;71254;53.010;6.508;2023-11-21T14:43:24;10.32;;;6.88;;
76332;SDS011;71254;53.010;6.508;2023-11-21T14:45:50;10.55;;;6.97;;
76332;SDS011;71254;53.010;6.508;2023-11-21T14:48:20;9.85;;;7.38;;